createdAt,value
2022-08-30T00:01:45.563Z,98920.25
2022-08-30T00:04:12.283Z,98917.19
2022-08-30T00:06:38.788Z,98918.81
2022-08-30T00:09:05.541Z,98925.16
2022-08-30T00:11:31.882Z,98918.47
2022-08-30T00:13:58.309Z,98915.19
2022-08-30T00:16:25.626Z,98918.69
2022-08-30T00:18:52.381Z,98917.06
2022-08-30T00:21:19.368Z,98920.22
2022-08-30T00:23:45.944Z,98914.16
2022-08-30T00:26:14.752Z,98926.31
2022-08-30T00:28:41.472Z,98919.75
2022-08-30T00:31:08.236Z,98933.25
2022-08-30T00:33:43.845Z,98925.88
2022-08-30T00:36:10.773Z,98928.31
2022-08-30T00:38:37.207Z,98926.44
2022-08-30T00:41:03.688Z,98930.28
2022-08-30T00:43:32.605Z,98929.13
2022-08-30T00:45:59.009Z,98938.47
2022-08-30T00:48:25.701Z,98935.19
2022-08-30T00:50:55.965Z,98929.22
2022-08-30T00:53:30.091Z,98932.50
2022-08-30T00:55:59.322Z,98937.78
2022-08-30T00:58:31.807Z,98942.56
2022-08-30T01:01:00.422Z,98938.69
2022-08-30T01:03:28.028Z,98934.22
2022-08-30T01:05:56.206Z,98937.47
2022-08-30T01:08:22.822Z,98937.69
2022-08-30T01:10:53.888Z,98936.53
2022-08-30T01:13:23.766Z,98938.16
2022-08-30T01:15:50.977Z,98936.06
2022-08-30T01:18:18.940Z,98950.59
2022-08-30T01:21:21.086Z,98938.63
2022-08-30T01:23:50.819Z,98943.59
2022-08-30T01:26:22.020Z,98946.75
2022-08-30T01:28:53.039Z,98942.19
2022-08-30T01:31:19.489Z,98939.38
2022-08-30T01:33:46.288Z,98937.25
2022-08-30T01:36:14.607Z,98930.59
2022-08-30T01:38:53.551Z,98931.19
2022-08-30T01:41:29.277Z,98931.59
2022-08-30T01:43:59.623Z,98929.31
2022-08-30T01:46:31.261Z,98930.97
2022-08-30T01:48:58.489Z,98933.28
2022-08-30T01:51:27.360Z,98943.50
2022-08-30T01:53:54.793Z,98945.31
2022-08-30T01:56:22.392Z,98950.56
2022-08-30T01:58:48.922Z,98945.91
2022-08-30T02:01:18.311Z,98949.91
2022-08-30T02:03:46.786Z,98952.91
2022-08-30T02:06:17.069Z,98955.44
2022-08-30T02:08:44.316Z,98961.72
2022-08-30T02:11:14.062Z,98955.31
2022-08-30T02:13:42.263Z,98959.25
2022-08-30T02:16:12.069Z,98959.84
2022-08-30T02:18:39.400Z,98950.13
2022-08-30T02:21:07.400Z,98956.94
2022-08-30T02:23:33.929Z,98952.00
2022-08-30T02:26:00.390Z,98950.13
2022-08-30T02:28:27.171Z,98938.47
2022-08-30T02:30:54.130Z,98944.09
2022-08-30T02:33:20.753Z,98947.00
2022-08-30T02:35:47.386Z,98944.09
2022-08-30T02:38:19.998Z,98942.66
2022-08-30T02:40:47.361Z,98941.06
2022-08-30T02:43:13.903Z,98947.00
2022-08-30T02:45:40.688Z,98946.84
2022-08-30T02:48:07.612Z,98940.88
2022-08-30T02:50:34.005Z,98944.16
2022-08-30T02:53:00.723Z,98938.34
2022-08-30T02:55:27.107Z,98939.97
2022-08-30T02:57:54.905Z,98938.47
2022-08-30T03:00:21.875Z,98938.63
2022-08-30T03:02:48.385Z,98938.53
2022-08-30T03:05:16.480Z,98942.38
2022-08-30T03:07:43.757Z,98945.94
2022-08-30T03:10:11.650Z,98946.84
2022-08-30T03:12:40.974Z,98946.47
2022-08-30T03:15:09.697Z,98933.47
2022-08-30T03:17:36.627Z,98938.59
2022-08-30T03:20:04.145Z,98933.59
2022-08-30T03:22:30.630Z,98928.72
2022-08-30T03:24:57.180Z,98928.59
2022-08-30T03:27:24.898Z,98930.97
2022-08-30T03:29:51.620Z,98935.59
2022-08-30T03:32:19.163Z,98921.00
2022-08-30T03:34:45.869Z,98924.06
2022-08-30T03:37:14.530Z,98924.47
2022-08-30T03:39:41.414Z,98931.03
2022-08-30T03:42:08.180Z,98928.72
2022-08-30T03:44:35.471Z,98925.84
2022-08-30T03:47:04.060Z,98932.47
2022-08-30T03:49:30.987Z,98922.53
2022-08-30T03:51:57.471Z,98925.41
2022-08-30T03:54:24.833Z,98918.22
2022-08-30T03:56:51.934Z,98922.31
2022-08-30T03:59:18.543Z,98930.59
2022-08-30T04:01:45.282Z,98923.78
2022-08-30T04:04:12.072Z,98929.84
2022-08-30T04:06:38.493Z,98931.69
2022-08-30T04:09:05.143Z,98928.41
2022-08-30T04:11:32.241Z,98927.19
2022-08-30T04:13:58.836Z,98925.56
2022-08-30T04:16:26.380Z,98928.63
2022-08-30T04:18:53.227Z,98929.44
2022-08-30T04:21:20.458Z,98927.97
2022-08-30T04:23:48.514Z,98922.34
2022-08-30T04:26:14.985Z,98932.91
2022-08-30T04:28:41.613Z,98931.66
2022-08-30T04:31:15.330Z,98939.31
2022-08-30T04:33:42.674Z,98944.66
2022-08-30T04:36:10.280Z,98939.47
2022-08-30T04:38:37.838Z,98940.63
2022-08-30T04:41:13.663Z,98939.88
2022-08-30T04:43:40.183Z,98927.53
2022-08-30T04:46:08.767Z,98935.38
2022-08-30T04:48:38.107Z,98934.53
2022-08-30T04:51:06.662Z,98951.88
2022-08-30T04:53:33.451Z,98945.56
2022-08-30T04:56:05.213Z,98954.84
2022-08-30T04:58:31.663Z,98966.63
2022-08-30T05:00:58.147Z,98957.03
2022-08-30T05:03:24.558Z,98967.81
2022-08-30T05:05:54.949Z,98958.97
2022-08-30T05:08:24.733Z,98964.72
2022-08-30T05:10:52.397Z,98977.59
2022-08-30T05:13:20.692Z,98976.78
2022-08-30T05:15:50.946Z,98965.78
2022-08-30T05:18:20.433Z,98982.47
2022-08-30T05:20:47.009Z,98973.75
2022-08-30T05:23:13.675Z,98973.94
2022-08-30T05:25:42.472Z,98982.56
2022-08-30T05:28:09.384Z,98987.69
2022-08-30T05:30:37.189Z,98989.94
2022-08-30T05:33:04.108Z,98990.44
2022-08-30T05:35:30.458Z,99001.41
2022-08-30T05:37:58.217Z,99007.41
2022-08-30T05:40:24.807Z,99003.66
2022-08-30T05:42:51.276Z,98996.97
2022-08-30T05:45:17.804Z,98991.44
2022-08-30T05:47:44.656Z,98992.59
2022-08-30T05:50:11.286Z,98988.34
2022-08-30T05:52:39.702Z,98996.88
2022-08-30T05:55:08.800Z,98981.81
2022-08-30T05:57:40.990Z,98977.19
2022-08-30T06:00:14.531Z,98969.03
2022-08-30T06:02:42.406Z,98966.00
2022-08-30T06:05:14.374Z,98960.88
2022-08-30T06:07:41.806Z,98969.91
2022-08-30T06:10:08.827Z,98957.53
2022-08-30T06:12:35.663Z,98955.78
2022-08-30T06:15:02.264Z,98963.97
2022-08-30T06:17:28.734Z,98954.75
2022-08-30T06:19:55.185Z,98956.22
2022-08-30T06:22:21.595Z,98961.59
2022-08-30T06:25:01.913Z,98962.13
2022-08-30T06:27:28.336Z,98956.47
2022-08-30T06:29:54.842Z,98957.19
2022-08-30T06:32:21.219Z,98963.53
2022-08-30T06:34:47.765Z,98961.38
2022-08-30T06:37:24.613Z,98963.47
2022-08-30T06:39:57.570Z,98945.03
2022-08-30T06:42:24.679Z,98943.22
2022-08-30T06:44:55.333Z,98943.28
2022-08-30T06:47:21.785Z,98943.25
2022-08-30T06:49:48.160Z,98953.91
2022-08-30T06:52:14.632Z,98949.22
2022-08-30T06:54:41.307Z,98945.94
2022-08-30T06:57:08.058Z,98946.56
2022-08-30T06:59:34.508Z,98944.28
2022-08-30T07:02:01.071Z,98948.72
2022-08-30T07:04:27.509Z,98952.63
2022-08-30T07:06:54.152Z,98949.78
2022-08-30T07:09:22.736Z,98945.91
2022-08-30T07:11:50.011Z,98950.94
2022-08-30T07:14:16.558Z,98949.38
2022-08-30T07:16:44.107Z,98945.22
2022-08-30T07:19:20.411Z,98943.91
2022-08-30T07:21:48.161Z,98945.88
2022-08-30T07:24:16.187Z,98948.94
2022-08-30T07:26:45.228Z,98943.78
2022-08-30T07:29:11.644Z,98943.66
2022-08-30T07:31:38.116Z,98942.16
2022-08-30T07:34:06.149Z,98940.78
2022-08-30T07:36:35.952Z,98933.91
2022-08-30T07:39:04.636Z,98938.94
2022-08-30T07:41:38.005Z,98943.00
2022-08-30T07:44:05.971Z,98939.78
2022-08-30T07:46:32.459Z,98941.44
2022-08-30T07:49:00.492Z,98931.53
2022-08-30T07:51:28.786Z,98933.06
2022-08-30T07:54:00.691Z,98943.50
2022-08-30T07:56:27.463Z,98936.69
2022-08-30T07:58:55.417Z,98940.47
2022-08-30T08:01:24.884Z,98945.88
2022-08-30T08:03:51.539Z,98940.41
2022-08-30T08:06:20.501Z,98940.94
2022-08-30T08:08:46.918Z,98934.66
2022-08-30T08:11:17.518Z,98931.13
2022-08-30T08:13:53.705Z,98938.66
2022-08-30T08:16:22.693Z,98938.09
2022-08-30T08:18:49.417Z,98940.72
2022-08-30T08:21:16.063Z,98935.22
2022-08-30T08:23:42.591Z,98936.28
2022-08-30T08:26:10.473Z,98941.47
2022-08-30T08:28:37.098Z,98941.66
2022-08-30T08:31:06.079Z,98943.19
2022-08-30T08:33:32.572Z,98936.59
2022-08-30T08:35:59.049Z,98938.06
2022-08-30T08:38:25.468Z,98938.44
2022-08-30T08:41:03.586Z,98938.56
2022-08-30T08:43:34.684Z,98932.41
2022-08-30T08:46:19.901Z,98925.38
2022-08-30T08:49:00.067Z,98923.19
2022-08-30T08:51:31.871Z,98927.63
2022-08-30T08:54:05.703Z,98929.09
2022-08-30T08:56:33.089Z,98926.84
2022-08-30T08:59:02.155Z,98924.25
2022-08-30T09:01:30.957Z,98930.00
2022-08-30T09:04:01.744Z,98922.47
2022-08-30T09:06:45.053Z,98927.22
2022-08-30T09:09:13.029Z,98913.84
2022-08-30T09:11:41.913Z,98924.44
2022-08-30T09:14:17.199Z,98923.75
2022-08-30T09:16:52.610Z,98929.06
2022-08-30T09:19:39.686Z,98929.63
2022-08-30T09:22:26.724Z,98925.47
2022-08-30T09:25:13.164Z,98925.50
2022-08-30T09:27:45.874Z,98917.34
2022-08-30T09:30:20.872Z,98924.44
2022-08-30T09:33:01.915Z,98920.94
2022-08-30T09:35:49.257Z,98914.69
2022-08-30T09:38:31.451Z,98912.16
2022-08-30T09:41:01.501Z,98910.72
2022-08-30T09:43:30.838Z,98908.44
2022-08-30T09:46:00.431Z,98901.63
2022-08-30T09:48:39.513Z,98900.03
2022-08-30T09:51:14.563Z,98902.88
2022-08-30T09:54:17.346Z,98892.81
2022-08-30T09:57:00.634Z,98897.06
2022-08-30T09:59:43.303Z,98895.06
2022-08-30T10:02:33.667Z,98895.97
2022-08-30T10:05:25.469Z,98891.22
2022-08-30T10:08:29.309Z,98878.69
2022-08-30T10:11:14.294Z,98880.34
2022-08-30T10:13:54.335Z,98887.31
2022-08-30T10:16:40.783Z,98879.13
2022-08-30T10:19:41.266Z,98875.72
2022-08-30T10:22:19.736Z,98879.22
2022-08-30T10:24:51.809Z,98866.38
2022-08-30T10:27:27.164Z,98863.66
2022-08-30T10:30:16.877Z,98852.63
2022-08-30T10:33:02.107Z,98852.41
2022-08-30T10:35:38.578Z,98849.09
2022-08-30T10:38:20.464Z,98859.13
2022-08-30T10:40:54.819Z,98847.50
2022-08-30T10:43:51.061Z,98852.13
2022-08-30T10:46:48.087Z,98852.81
2022-08-30T10:49:20.113Z,98854.72
2022-08-30T10:51:55.347Z,98844.38
2022-08-30T10:54:57.573Z,98854.03
2022-08-30T10:57:24.604Z,98852.97
2022-08-30T11:00:02.788Z,98861.09
2022-08-30T11:03:09.419Z,98856.28
2022-08-30T11:06:14.910Z,98870.16
2022-08-30T11:09:24.880Z,98853.94
2022-08-30T11:12:20.951Z,98857.63
2022-08-30T11:14:48.144Z,98855.75
2022-08-30T11:17:39.089Z,98847.38
2022-08-30T11:20:22.972Z,98856.53
2022-08-30T11:23:29.043Z,98853.41
2022-08-30T11:26:07.754Z,98852.72
2022-08-30T11:28:41.434Z,98857.19
2022-08-30T11:31:11.217Z,98857.81
2022-08-30T11:33:51.523Z,98854.22
2022-08-30T11:36:37.411Z,98856.63
2022-08-30T11:39:53.185Z,98860.16
2022-08-30T11:42:19.950Z,98858.13
2022-08-30T11:44:46.713Z,98847.25
2022-08-30T11:47:35.276Z,98859.09
2022-08-30T11:50:15.481Z,98858.63
2022-08-30T11:53:23.437Z,98845.09
2022-08-30T11:56:06.941Z,98864.44
2022-08-30T11:58:43.891Z,98851.97
2022-08-30T12:01:49.927Z,98846.13
2022-08-30T12:04:18.024Z,98849.72
2022-08-30T12:06:52.413Z,98841.38
2022-08-30T12:09:18.742Z,98836.91
2022-08-30T12:12:03.996Z,98838.97
2022-08-30T12:14:40.991Z,98838.81
2022-08-30T12:17:19.667Z,98841.56
2022-08-30T12:19:50.302Z,98848.00
2022-08-30T12:22:18.906Z,98839.97
2022-08-30T12:24:51.822Z,98828.31
2022-08-30T12:27:32.598Z,98830.88
2022-08-30T12:30:07.425Z,98833.78
2022-08-30T12:32:42.478Z,98835.53
2022-08-30T12:35:21.858Z,98829.56
2022-08-30T12:38:01.599Z,98830.16
2022-08-30T12:40:30.527Z,98825.78
2022-08-30T12:43:03.856Z,98826.94
2022-08-30T12:45:41.084Z,98818.53
2022-08-30T12:48:15.727Z,98821.47
2022-08-30T12:50:57.648Z,98817.63
2022-08-30T12:53:44.633Z,98806.09
2022-08-30T12:56:14.965Z,98815.50
2022-08-30T12:58:47.851Z,98808.84
2022-08-30T13:01:17.293Z,98812.09
2022-08-30T13:03:55.558Z,98802.41
2022-08-30T13:06:51.606Z,98802.72
2022-08-30T13:09:43.573Z,98803.19
2022-08-30T13:12:25.153Z,98794.50
2022-08-30T13:14:53.322Z,98795.53
2022-08-30T13:17:25.396Z,98785.31
2022-08-30T13:20:24.287Z,98777.84
2022-08-30T13:23:11.033Z,98782.44
2022-08-30T13:25:39.574Z,98773.81
2022-08-30T13:28:07.445Z,98772.91
2022-08-30T13:30:36.922Z,98767.41
2022-08-30T13:33:04.190Z,98767.91
2022-08-30T13:35:32.191Z,98757.59
2022-08-30T13:38:01.758Z,98761.41
2022-08-30T13:40:28.381Z,98751.78
2022-08-30T13:42:54.875Z,98761.41
2022-08-30T13:48:13.904Z,98757.81
2022-08-30T13:50:41.953Z,98753.28
2022-08-30T13:53:09.305Z,98749.09
2022-08-30T13:55:38.354Z,98741.47
2022-08-30T13:58:05.608Z,98736.31
2022-08-30T14:00:36.632Z,98741.50
2022-08-30T14:03:04.686Z,98731.72
2022-08-30T14:06:04.884Z,98738.38
2022-08-30T14:11:18.349Z,98731.91
2022-08-30T14:16:34.562Z,98724.56
2022-08-30T14:19:01.839Z,98717.97
2022-08-30T14:21:29.153Z,98710.88
2022-08-30T14:23:58.029Z,98707.59
2022-08-30T14:26:33.815Z,98702.97
2022-08-30T14:29:05.726Z,98705.66
2022-08-30T14:31:36.028Z,98709.50
2022-08-30T14:34:05.745Z,98703.00
2022-08-30T14:36:33.749Z,98711.19
2022-08-30T14:39:00.786Z,98700.94
2022-08-30T14:41:27.427Z,98708.94
2022-08-30T14:43:54.114Z,98703.22
2022-08-30T14:46:20.990Z,98703.25
2022-08-30T14:48:50.385Z,98707.91
2022-08-30T14:51:19.518Z,98698.91
2022-08-30T14:53:47.776Z,98700.59
2022-08-30T14:56:18.503Z,98698.88
2022-08-30T14:58:48.186Z,98695.94
2022-08-30T15:01:15.588Z,98697.91
2022-08-30T15:03:42.975Z,98694.88
2022-08-30T15:06:10.881Z,98693.41
2022-08-30T15:08:38.075Z,98696.47
2022-08-30T15:11:11.404Z,98686.16
2022-08-30T15:13:38.777Z,98693.44
2022-08-30T15:16:19.834Z,98684.50
2022-08-30T15:18:47.061Z,98684.19
2022-08-30T15:21:14.423Z,98686.94
2022-08-30T15:23:41.574Z,98682.22
2022-08-30T15:26:09.454Z,98680.94
2022-08-30T15:28:36.747Z,98674.81
2022-08-30T15:31:08.590Z,98671.81
2022-08-30T15:33:35.496Z,98667.69
2022-08-30T15:36:07.783Z,98664.00
2022-08-30T15:38:35.183Z,98670.22
2022-08-30T15:41:06.964Z,98666.81
2022-08-30T15:43:34.811Z,98658.91
2022-08-30T15:46:16.800Z,98667.03
2022-08-30T15:48:46.333Z,98664.72
2022-08-30T15:51:13.135Z,98665.28
2022-08-30T15:53:41.316Z,98665.03
2022-08-30T15:56:08.021Z,98670.16
2022-08-30T15:58:34.862Z,98660.94
2022-08-30T16:01:02.871Z,98663.16
2022-08-30T16:03:29.528Z,98664.53
2022-08-30T16:05:56.370Z,98650.47
2022-08-30T16:08:23.280Z,98654.47
2022-08-30T16:10:51.837Z,98645.06
2022-08-30T16:13:20.313Z,98646.09
2022-08-30T16:15:46.769Z,98647.19
2022-08-30T16:18:15.001Z,98650.19
2022-08-30T16:20:45.182Z,98641.69
2022-08-30T16:23:12.915Z,98643.19
2022-08-30T16:25:40.005Z,98638.50
2022-08-30T16:28:09.534Z,98634.81
2022-08-30T16:30:36.278Z,98639.44
2022-08-30T16:33:06.077Z,98640.47
2022-08-30T16:35:33.793Z,98634.69
2022-08-30T16:38:06.205Z,98633.91
2022-08-30T16:40:35.199Z,98630.19
2022-08-30T16:43:04.189Z,98626.81
2022-08-30T16:45:37.269Z,98634.44
2022-08-30T16:48:04.939Z,98626.84
2022-08-30T16:50:34.937Z,98625.22
2022-08-30T16:53:04.760Z,98628.78
2022-08-30T16:55:34.665Z,98623.81
2022-08-30T16:58:01.398Z,98622.50
2022-08-30T17:00:28.169Z,98617.63
2022-08-30T17:02:55.270Z,98613.38
2022-08-30T17:05:23.108Z,98609.13
2022-08-30T17:07:49.755Z,98614.72
2022-08-30T17:10:17.863Z,98612.47
2022-08-30T17:12:49.629Z,98624.16
2022-08-30T17:15:16.094Z,98630.03
2022-08-30T17:17:43.124Z,98624.09
2022-08-30T17:20:10.512Z,98619.34
2022-08-30T17:22:36.969Z,98625.81
2022-08-30T17:25:03.965Z,98636.25
2022-08-30T17:27:32.984Z,98641.91
2022-08-30T17:29:59.517Z,98643.94
2022-08-30T17:32:26.130Z,98648.66
2022-08-30T17:34:56.092Z,98655.69
2022-08-30T17:37:22.598Z,98652.59
2022-08-30T17:39:50.238Z,98650.84
2022-08-30T17:42:16.739Z,98660.25
2022-08-30T17:44:43.439Z,98668.81
2022-08-30T17:47:10.337Z,98659.66
2022-08-30T17:49:37.446Z,98668.50
2022-08-30T17:52:05.337Z,98673.88
2022-08-30T17:54:34.562Z,98675.84
2022-08-30T17:57:10.112Z,98679.75
2022-08-30T17:59:37.849Z,98682.03
2022-08-30T18:02:06.090Z,98670.97
2022-08-30T18:04:33.198Z,98677.06
2022-08-30T18:06:59.513Z,98678.00
2022-08-30T18:09:27.791Z,98671.41
2022-08-30T18:11:58.384Z,98683.72
2022-08-30T18:14:27.061Z,98684.09
2022-08-30T18:16:55.015Z,98684.75
2022-08-30T18:19:29.379Z,98691.38
2022-08-30T18:21:56.575Z,98689.72
2022-08-30T18:24:26.087Z,98683.78
2022-08-30T18:26:53.165Z,98690.31
2022-08-30T18:29:29.130Z,98694.28
2022-08-30T18:32:02.530Z,98693.56
2022-08-30T18:34:30.035Z,98691.91
2022-08-30T18:36:57.024Z,98699.38
2022-08-30T18:39:23.952Z,98706.00
2022-08-30T18:41:50.906Z,98716.09
2022-08-30T18:44:33.212Z,98708.72
2022-08-30T18:47:05.658Z,98705.00
2022-08-30T18:49:54.079Z,98710.94
2022-08-30T18:52:20.515Z,98721.69
2022-08-30T18:54:52.665Z,98726.16
2022-08-30T18:57:20.073Z,98729.44
2022-08-30T18:59:47.458Z,98721.53
2022-08-30T19:02:17.501Z,98722.69
2022-08-30T19:04:45.194Z,98730.13
2022-08-30T19:10:01.222Z,98739.19
2022-08-30T19:12:28.346Z,98736.13
2022-08-30T19:14:56.228Z,98735.38
2022-08-30T19:17:23.054Z,98734.59
2022-08-30T19:19:52.281Z,98730.56
2022-08-30T19:22:26.617Z,98733.56
2022-08-30T19:24:55.183Z,98736.06
2022-08-30T19:27:37.299Z,98739.66
2022-08-30T19:30:08.082Z,98738.88
2022-08-30T19:32:35.014Z,98740.53
2022-08-30T19:35:01.455Z,98745.19
2022-08-30T19:37:29.640Z,98739.00
2022-08-30T19:39:56.438Z,98744.19
2022-08-30T19:42:27.035Z,98746.34
2022-08-30T19:44:53.490Z,98743.38
2022-08-30T19:47:20.007Z,98746.41
2022-08-30T19:49:46.376Z,98744.50
2022-08-30T19:52:12.939Z,98742.31
2022-08-30T19:54:39.571Z,98745.63
2022-08-30T19:57:09.526Z,98744.00
2022-08-30T19:59:37.371Z,98745.09
2022-08-30T20:02:05.192Z,98743.44
2022-08-30T20:04:33.154Z,98738.31
2022-08-30T20:07:00.216Z,98741.31
2022-08-30T20:09:26.782Z,98737.22
2022-08-30T20:11:55.139Z,98744.53
2022-08-30T20:14:25.761Z,98741.31
2022-08-30T20:16:52.512Z,98740.75
2022-08-30T20:19:21.907Z,98734.50
2022-08-30T20:21:55.687Z,98739.94
2022-08-30T20:24:31.782Z,98723.88
2022-08-30T20:24:32.973Z,98733.91
2022-08-30T20:26:59.697Z,98734.19
2022-08-30T20:29:28.611Z,98729.53
2022-08-30T20:32:01.401Z,98728.72
2022-08-30T20:34:29.302Z,98731.72
2022-08-30T20:36:57.216Z,98730.59
2022-08-30T20:39:24.594Z,98727.84
2022-08-30T20:41:51.541Z,98733.28
2022-08-30T20:44:22.950Z,98737.34
2022-08-30T20:46:49.366Z,98733.00
2022-08-30T20:49:16.349Z,98725.13
2022-08-30T20:51:43.108Z,98726.47
2022-08-30T20:54:09.567Z,98723.50
2022-08-30T20:56:36.307Z,98718.06
2022-08-30T20:59:04.556Z,98718.31
2022-08-30T21:01:36.411Z,98718.63
2022-08-30T21:04:05.957Z,98728.13
2022-08-30T21:06:33.345Z,98714.22
2022-08-30T21:08:59.827Z,98715.59
2022-08-30T21:11:26.397Z,98716.31
2022-08-30T21:13:55.778Z,98717.13
2022-08-30T21:16:22.353Z,98712.47
2022-08-30T21:18:49.038Z,98714.88
2022-08-30T21:21:18.779Z,98720.00
2022-08-30T21:23:45.202Z,98716.41
2022-08-30T21:26:11.745Z,98721.53
2022-08-30T21:28:39.714Z,98720.63
2022-08-30T21:31:09.612Z,98726.59
2022-08-30T21:33:37.476Z,98730.38
2022-08-30T21:36:05.832Z,98728.19
2022-08-30T21:38:32.434Z,98728.16
2022-08-30T21:40:58.886Z,98728.97
2022-08-30T21:43:26.564Z,98736.00
2022-08-30T21:45:53.030Z,98734.38
2022-08-30T21:48:19.661Z,98731.94
2022-08-30T21:50:46.274Z,98736.03
2022-08-30T21:53:15.431Z,98734.09
2022-08-30T21:55:43.907Z,98735.44
2022-08-30T21:58:10.820Z,98731.44
2022-08-30T22:00:37.515Z,98734.91
2022-08-30T22:03:04.602Z,98743.56
2022-08-30T22:05:35.592Z,98749.78
2022-08-30T22:08:02.141Z,98744.41
2022-08-30T22:10:36.043Z,98741.97
2022-08-30T22:13:02.432Z,98749.31
2022-08-30T22:15:30.569Z,98744.16
2022-08-30T22:17:59.130Z,98745.84
2022-08-30T22:20:25.735Z,98746.13
2022-08-30T22:22:56.902Z,98744.47
2022-08-30T22:25:24.539Z,98741.97
2022-08-30T22:27:50.998Z,98758.75
2022-08-30T22:30:17.726Z,98741.13
2022-08-30T22:32:44.332Z,98751.06
2022-08-30T22:35:13.723Z,98749.44
2022-08-30T22:37:41.341Z,98758.47
2022-08-30T22:40:16.078Z,98756.00
2022-08-30T22:42:45.023Z,98752.41
2022-08-30T22:45:12.313Z,98756.19
2022-08-30T22:47:39.038Z,98755.63
2022-08-30T22:50:06.097Z,98757.22
2022-08-30T22:52:32.869Z,98752.91
2022-08-30T22:54:59.713Z,98764.56
2022-08-30T22:57:26.516Z,98766.97
2022-08-30T22:59:52.927Z,98771.53
2022-08-30T23:02:19.454Z,98776.78
2022-08-30T23:04:46.017Z,98770.78
2022-08-30T23:07:12.458Z,98774.47
2022-08-30T23:09:41.114Z,98770.72
2022-08-30T23:12:07.860Z,98766.84
2022-08-30T23:14:37.049Z,98770.59
2022-08-30T23:17:04.282Z,98771.94
2022-08-30T23:19:30.759Z,98773.84
2022-08-30T23:21:57.129Z,98781.25
2022-08-30T23:24:23.602Z,98766.91
2022-08-30T23:26:50.082Z,98766.84
2022-08-30T23:29:16.970Z,98768.16
2022-08-30T23:31:43.389Z,98767.84
2022-08-30T23:34:13.133Z,98762.13
2022-08-30T23:36:39.789Z,98764.03
2022-08-30T23:39:06.832Z,98762.69
2022-08-30T23:41:34.018Z,98755.84
2022-08-30T23:44:02.868Z,98763.41
2022-08-30T23:46:29.362Z,98758.78
2022-08-30T23:48:55.716Z,98753.88
2022-08-30T23:51:22.627Z,98757.69
2022-08-30T23:53:49.644Z,98759.56
2022-08-30T23:56:16.046Z,98759.56
2022-08-30T23:58:42.483Z,98752.06
